Time;durP1;ratioP1;P1;durP2;ratioP2;P2;SDS_P1;SDS_P2;PMS_P1;PMS_P2;Temp;Humidity;BMP_temperature;BMP_pressure;BME280_temperature;BME280_humidity;BME280_pressure;Samples;Min_cycle;Max_cycle;Signal;HPM_P1;HPM_P2
2021/12/27 00:01:05;;;;;;;13.20;8.73;;;;;;;;;;4950684;28;21942;-62
2021/12/27 00:03:33;;;;;;;13.63;8.20;;;;;;;;;;4958462;28;20235;-64
2021/12/27 00:06:00;;;;;;;11.30;8.67;;;;;;;;;;4954535;28;20212;-64
2021/12/27 00:08:28;;;;;;;12.20;8.40;;;;;;;;;;4952103;28;20204;-64
2021/12/27 00:10:55;;;;;;;11.77;8.53;;;;;;;;;;4953652;28;20243;-63
2021/12/27 00:13:22;;;;;;;11.53;8.50;;;;;;;;;;4957302;28;20217;-63
2021/12/27 00:15:50;;;;;;;13.13;9.80;;;;;;;;;;4958669;28;20204;-64
2021/12/27 00:18:17;;;;;;;13.13;9.77;;;;;;;;;;4969703;28;20753;-63
2021/12/27 00:20:45;;;;;;;12.90;9.60;;;;;;;;;;4944844;28;20573;-62
2021/12/27 00:23:12;;;;;;;11.67;8.67;;;;;;;;;;4964948;28;20227;-64
2021/12/27 00:25:39;;;;;;;16.03;10.70;;;;;;;;;;4955715;28;20241;-65
2021/12/27 00:28:07;;;;;;;12.77;9.70;;;;;;;;;;4948527;28;20201;-64
2021/12/27 00:30:34;;;;;;;13.40;9.83;;;;;;;;;;4961725;28;20232;-63
2021/12/27 00:33:02;;;;;;;12.73;8.77;;;;;;;;;;4963792;28;20367;-65
2021/12/27 00:35:32;;;;;;;12.43;8.63;;;;;;;;;;4964181;28;20204;-64
2021/12/27 00:38:00;;;;;;;12.20;8.97;;;;;;;;;;4974233;28;20216;-64
2021/12/27 00:40:27;;;;;;;11.70;9.43;;;;;;;;;;4962522;28;20771;-64
2021/12/27 00:42:54;;;;;;;11.60;9.23;;;;;;;;;;4949260;28;20212;-64
2021/12/27 00:45:22;;;;;;;9.70;7.50;;;;;;;;;;4965704;28;20208;-63
2021/12/27 00:47:50;;;;;;;9.40;7.43;;;;;;;;;;4957332;28;20214;-64
2021/12/27 00:50:18;;;;;;;8.63;7.30;;;;;;;;;;4955115;28;20698;-64
2021/12/27 00:52:46;;;;;;;9.67;7.83;;;;;;;;;;4951951;28;20212;-64
2021/12/27 00:55:15;;;;;;;10.23;8.20;;;;;;;;;;4943246;28;20212;-63
2021/12/27 00:57:42;;;;;;;10.00;8.03;;;;;;;;;;4977466;28;20205;-63
2021/12/27 01:00:11;;;;;;;9.70;7.83;;;;;;;;;;4973876;28;20207;-62
2021/12/27 01:02:41;;;;;;;10.33;8.23;;;;;;;;;;4959828;28;20223;-64
2021/12/27 01:05:09;;;;;;;8.77;7.70;;;;;;;;;;4957976;28;20630;-63
2021/12/27 01:07:51;;;;;;;9.43;7.97;;;;;;;;;;4977896;28;20315;-62
2021/12/27 01:13:42;;;;;;;9.83;7.93;;;;;;;;;;4971718;28;20224;-64
2021/12/27 01:16:14;;;;;;;9.37;7.73;;;;;;;;;;4982963;28;20240;-64
2021/12/27 01:18:50;;;;;;;8.80;7.77;;;;;;;;;;4969093;28;20215;-64
2021/12/27 01:21:25;;;;;;;8.53;7.47;;;;;;;;;;4984822;28;20188;-65
2021/12/27 01:23:59;;;;;;;10.23;8.10;;;;;;;;;;4973771;28;20709;-64
2021/12/27 01:26:28;;;;;;;9.73;7.73;;;;;;;;;;4980496;28;20330;-64
2021/12/27 01:29:08;;;;;;;8.67;7.70;;;;;;;;;;4970898;28;20679;-63
2021/12/27 01:31:44;;;;;;;9.17;7.73;;;;;;;;;;4963929;28;20286;-64
2021/12/27 01:34:25;;;;;;;11.90;8.93;;;;;;;;;;4973559;28;20230;-63
2021/12/27 01:36:57;;;;;;;12.10;8.67;;;;;;;;;;4953735;28;20217;-64
2021/12/27 01:39:28;;;;;;;11.73;8.80;;;;;;;;;;4966603;28;20246;-64
2021/12/27 01:42:02;;;;;;;11.40;8.83;;;;;;;;;;4963800;28;20323;-62
2021/12/27 01:44:34;;;;;;;10.97;8.70;;;;;;;;;;4979437;28;20232;-64
2021/12/27 01:47:11;;;;;;;11.73;9.00;;;;;;;;;;4961401;28;20219;-64
2021/12/27 01:49:52;;;;;;;11.63;8.93;;;;;;;;;;4976761;28;20307;-64
2021/12/27 01:52:25;;;;;;;13.60;9.30;;;;;;;;;;4973333;28;20220;-64
2021/12/27 01:54:52;;;;;;;13.67;9.47;;;;;;;;;;4960106;28;20232;-64
2021/12/27 01:57:20;;;;;;;11.23;9.03;;;;;;;;;;4966592;28;20195;-64
2021/12/27 01:59:47;;;;;;;12.33;9.23;;;;;;;;;;4961721;28;20214;-63
2021/12/27 02:02:35;;;;;;;10.80;9.07;;;;;;;;;;4963348;28;20220;-63
2021/12/27 02:05:02;;;;;;;12.00;9.67;;;;;;;;;;4957603;28;20229;-64
2021/12/27 02:07:30;;;;;;;15.93;9.63;;;;;;;;;;4955552;28;20612;-63
2021/12/27 02:10:02;;;;;;;14.33;10.00;;;;;;;;;;4954340;28;20204;-63
2021/12/27 02:12:31;;;;;;;12.70;9.73;;;;;;;;;;4961334;28;20247;-64
2021/12/27 02:14:58;;;;;;;14.63;10.00;;;;;;;;;;4951811;28;20975;-63
2021/12/27 02:17:26;;;;;;;15.63;10.80;;;;;;;;;;4953739;28;20331;-63
2021/12/27 02:19:53;;;;;;;14.40;10.17;;;;;;;;;;4966178;28;20598;-63
2021/12/27 02:22:21;;;;;;;16.07;10.53;;;;;;;;;;4951566;28;20204;-63
2021/12/27 02:24:49;;;;;;;14.80;10.70;;;;;;;;;;4969893;28;20316;-63
2021/12/27 02:27:17;;;;;;;14.17;10.60;;;;;;;;;;4963804;28;20763;-64
2021/12/27 02:29:44;;;;;;;14.70;9.87;;;;;;;;;;4951949;28;20857;-64
2021/12/27 02:32:12;;;;;;;16.10;10.73;;;;;;;;;;4950499;28;20293;-64
2021/12/27 02:34:39;;;;;;;14.83;10.30;;;;;;;;;;4967104;28;20224;-63
2021/12/27 02:37:07;;;;;;;15.03;11.07;;;;;;;;;;4952456;28;20208;-64
2021/12/27 02:39:34;;;;;;;14.43;10.10;;;;;;;;;;4962383;28;20276;-65
2021/12/27 02:42:02;;;;;;;14.53;10.17;;;;;;;;;;4959994;28;20356;-63
2021/12/27 02:44:29;;;;;;;13.77;10.07;;;;;;;;;;4949352;28;20243;-64
2021/12/27 02:46:57;;;;;;;12.87;9.43;;;;;;;;;;4952867;28;20219;-64
2021/12/27 02:49:24;;;;;;;15.60;11.23;;;;;;;;;;4957204;28;20307;-64
2021/12/27 02:51:52;;;;;;;16.57;11.53;;;;;;;;;;4959267;28;20236;-64
2021/12/27 02:54:20;;;;;;;17.40;11.33;;;;;;;;;;4957377;28;20274;-62
2021/12/27 02:56:48;;;;;;;17.83;11.87;;;;;;;;;;4953788;28;20573;-64
2021/12/27 02:59:15;;;;;;;18.57;10.90;;;;;;;;;;4952153;28;20209;-63
2021/12/27 03:01:43;;;;;;;18.40;11.97;;;;;;;;;;4963665;28;20588;-63
2021/12/27 03:04:10;;;;;;;17.77;11.63;;;;;;;;;;4951206;28;20231;-64
2021/12/27 03:06:38;;;;;;;19.87;12.27;;;;;;;;;;4950444;28;20303;-63
2021/12/27 03:09:05;;;;;;;17.50;11.40;;;;;;;;;;4951245;28;20216;-64
2021/12/27 03:11:32;;;;;;;18.80;12.13;;;;;;;;;;4959598;28;20228;-63
2021/12/27 03:14:00;;;;;;;18.07;12.13;;;;;;;;;;4953346;28;20228;-64
2021/12/27 03:16:27;;;;;;;17.40;11.63;;;;;;;;;;4953128;28;20205;-66
2021/12/27 03:18:55;;;;;;;15.67;10.30;;;;;;;;;;4956104;28;20205;-64
2021/12/27 03:21:22;;;;;;;16.23;10.90;;;;;;;;;;4965751;28;20660;-63
2021/12/27 03:23:50;;;;;;;14.93;10.73;;;;;;;;;;4967988;28;21289;-65
2021/12/27 03:26:18;;;;;;;16.20;10.47;;;;;;;;;;4977791;28;20228;-64
2021/12/27 03:28:46;;;;;;;14.87;9.93;;;;;;;;;;4953240;28;20323;-63
2021/12/27 03:31:15;;;;;;;14.80;9.47;;;;;;;;;;4955316;28;20235;-64
2021/12/27 03:33:43;;;;;;;13.97;9.43;;;;;;;;;;4954821;28;20816;-64
2021/12/27 03:36:11;;;;;;;14.30;9.23;;;;;;;;;;4937352;28;20562;-63
2021/12/27 03:38:40;;;;;;;11.33;8.30;;;;;;;;;;4968618;28;20279;-64
2021/12/27 03:41:10;;;;;;;12.63;9.27;;;;;;;;;;4948682;28;20298;-63
2021/12/27 03:43:37;;;;;;;14.60;9.90;;;;;;;;;;4961409;28;20899;-64
2021/12/27 03:46:08;;;;;;;13.93;9.93;;;;;;;;;;4955544;28;20945;-63
2021/12/27 03:48:36;;;;;;;16.30;10.27;;;;;;;;;;4951372;28;20352;-64
2021/12/27 03:51:03;;;;;;;14.70;10.47;;;;;;;;;;4960390;28;20212;-64
2021/12/27 03:53:31;;;;;;;15.63;10.90;;;;;;;;;;4948762;28;20270;-63
2021/12/27 03:55:58;;;;;;;16.57;10.27;;;;;;;;;;4964964;28;20219;-64
2021/12/27 03:58:45;;;;;;;16.77;10.93;;;;;;;;;;4955596;28;20819;-64
2021/12/27 04:01:15;;;;;;;14.37;10.03;;;;;;;;;;4955453;28;20635;-63
2021/12/27 04:03:44;;;;;;;15.23;9.80;;;;;;;;;;4965491;28;20232;-63
2021/12/27 04:06:15;;;;;;;14.27;10.03;;;;;;;;;;4952628;28;20212;-65
2021/12/27 04:08:43;;;;;;;16.33;11.00;;;;;;;;;;4948227;28;20211;-63
2021/12/27 04:11:10;;;;;;;17.13;10.60;;;;;;;;;;4952500;28;20467;-62
2021/12/27 04:13:38;;;;;;;16.03;10.63;;;;;;;;;;4949338;28;20280;-64
2021/12/27 04:16:06;;;;;;;16.20;10.47;;;;;;;;;;4968884;28;20208;-64
2021/12/27 04:18:34;;;;;;;17.60;11.50;;;;;;;;;;4952464;28;20227;-65
2021/12/27 04:21:01;;;;;;;17.10;10.97;;;;;;;;;;4950698;28;20699;-64
2021/12/27 04:23:28;;;;;;;15.77;10.90;;;;;;;;;;4951367;28;20800;-64
2021/12/27 04:25:56;;;;;;;18.23;11.00;;;;;;;;;;4959922;28;20212;-62
2021/12/27 04:28:24;;;;;;;18.83;10.93;;;;;;;;;;4954601;28;20247;-63
2021/12/27 04:30:52;;;;;;;19.57;11.57;;;;;;;;;;4950759;28;20219;-64
2021/12/27 04:33:19;;;;;;;18.83;11.37;;;;;;;;;;4954227;28;20239;-64
2021/12/27 04:35:46;;;;;;;18.47;11.00;;;;;;;;;;4964624;28;20226;-64
2021/12/27 04:38:14;;;;;;;19.60;10.80;;;;;;;;;;4951722;28;20230;-64
2021/12/27 04:40:43;;;;;;;24.20;11.63;;;;;;;;;;4948828;28;20222;-63
2021/12/27 04:43:15;;;;;;;19.60;11.13;;;;;;;;;;4965625;28;20235;-64
2021/12/27 04:45:43;;;;;;;22.47;11.73;;;;;;;;;;4954023;28;20215;-63
2021/12/27 04:48:10;;;;;;;21.53;12.70;;;;;;;;;;4967985;28;20748;-63
2021/12/27 04:50:38;;;;;;;20.67;11.77;;;;;;;;;;4953077;28;20271;-64
2021/12/27 04:53:06;;;;;;;21.50;12.07;;;;;;;;;;4959114;28;24626;-64
2021/12/27 04:55:35;;;;;;;22.30;12.23;;;;;;;;;;4957671;28;20236;-62
2021/12/27 04:58:09;;;;;;;24.20;11.53;;;;;;;;;;4957751;28;20889;-63
2021/12/27 05:00:38;;;;;;;21.17;11.77;;;;;;;;;;4946744;28;20624;-64
2021/12/27 05:03:06;;;;;;;19.50;11.60;;;;;;;;;;4964138;28;20322;-64
2021/12/27 05:05:33;;;;;;;23.00;12.43;;;;;;;;;;4966876;28;20639;-64
2021/12/27 05:08:02;;;;;;;21.50;11.87;;;;;;;;;;4954162;28;20219;-64
2021/12/27 05:10:30;;;;;;;24.90;12.50;;;;;;;;;;4958715;28;20227;-64
2021/12/27 05:12:58;;;;;;;22.70;11.87;;;;;;;;;;4951321;28;20747;-64
2021/12/27 05:15:25;;;;;;;22.37;11.87;;;;;;;;;;4962000;28;20295;-64
2021/12/27 05:17:53;;;;;;;22.97;11.10;;;;;;;;;;4938964;28;20208;-63
2021/12/27 05:20:21;;;;;;;22.00;11.53;;;;;;;;;;4951573;28;20212;-64
2021/12/27 05:22:48;;;;;;;18.83;10.67;;;;;;;;;;4954638;28;20240;-64
2021/12/27 05:25:18;;;;;;;18.87;10.67;;;;;;;;;;4963267;28;20220;-64
2021/12/27 05:27:46;;;;;;;21.07;10.43;;;;;;;;;;4944360;28;20307;-64
2021/12/27 05:30:18;;;;;;;20.70;10.23;;;;;;;;;;4951731;28;21239;-63
2021/12/27 05:32:46;;;;;;;23.37;11.07;;;;;;;;;;4967527;28;20231;-64
2021/12/27 05:35:14;;;;;;;22.07;11.13;;;;;;;;;;4960617;28;20571;-64
2021/12/27 05:37:42;;;;;;;27.53;11.43;;;;;;;;;;4956718;28;20477;-64
2021/12/27 05:40:12;;;;;;;24.97;11.93;;;;;;;;;;4963708;28;20223;-64
2021/12/27 05:42:39;;;;;;;23.40;11.43;;;;;;;;;;4952798;28;20229;-65
2021/12/27 05:45:07;;;;;;;22.57;11.40;;;;;;;;;;4945075;28;20237;-64
2021/12/27 05:47:35;;;;;;;20.77;11.27;;;;;;;;;;4967635;28;20204;-65
2021/12/27 05:50:04;;;;;;;24.67;11.17;;;;;;;;;;4947712;28;20303;-63
2021/12/27 05:52:31;;;;;;;24.40;11.47;;;;;;;;;;4951345;28;20239;-64
2021/12/27 05:54:58;;;;;;;21.07;11.50;;;;;;;;;;4954528;28;23449;-63
2021/12/27 05:57:26;;;;;;;22.83;12.23;;;;;;;;;;4946916;28;20227;-64
2021/12/27 05:59:53;;;;;;;20.43;11.23;;;;;;;;;;4949435;28;20713;-63
2021/12/27 06:02:21;;;;;;;22.03;11.43;;;;;;;;;;4962563;28;20279;-64
2021/12/27 06:04:48;;;;;;;18.60;10.90;;;;;;;;;;4954585;28;20247;-63
2021/12/27 06:07:16;;;;;;;22.17;11.97;;;;;;;;;;4955614;28;20215;-63
2021/12/27 06:09:44;;;;;;;23.17;12.43;;;;;;;;;;4951367;28;20227;-63
2021/12/27 06:12:11;;;;;;;21.30;12.27;;;;;;;;;;4964489;28;23029;-62
2021/12/27 06:14:39;;;;;;;18.47;11.20;;;;;;;;;;4948601;28;20867;-64
2021/12/27 06:17:06;;;;;;;20.47;11.73;;;;;;;;;;4961032;28;20255;-63
2021/12/27 06:19:34;;;;;;;19.87;11.23;;;;;;;;;;4956051;28;20675;-64
2021/12/27 06:22:01;;;;;;;22.13;11.93;;;;;;;;;;4956136;28;20726;-64
2021/12/27 06:24:29;;;;;;;20.33;11.83;;;;;;;;;;4952577;28;20259;-63
2021/12/27 06:26:56;;;;;;;19.43;11.90;;;;;;;;;;4964198;28;20233;-63
2021/12/27 06:29:23;;;;;;;20.37;12.10;;;;;;;;;;4952095;28;20213;-64
2021/12/27 06:31:50;;;;;;;20.43;12.07;;;;;;;;;;4966089;28;20234;-63
2021/12/27 06:34:19;;;;;;;18.37;10.87;;;;;;;;;;4958964;28;20228;-62
2021/12/27 06:36:47;;;;;;;20.83;13.17;;;;;;;;;;4955643;28;20208;-64
2021/12/27 06:39:14;;;;;;;22.73;13.50;;;;;;;;;;4958796;28;20221;-63
2021/12/27 06:41:42;;;;;;;19.87;12.47;;;;;;;;;;4942128;28;20343;-63
2021/12/27 06:44:09;;;;;;;20.23;13.10;;;;;;;;;;4942680;28;20278;-64
2021/12/27 06:46:36;;;;;;;17.47;11.27;;;;;;;;;;4954733;28;20201;-64
2021/12/27 06:49:04;;;;;;;22.73;12.53;;;;;;;;;;4960765;28;20299;-62
2021/12/27 06:51:34;;;;;;;20.00;12.23;;;;;;;;;;4951237;28;20291;-62
2021/12/27 06:54:01;;;;;;;17.93;11.03;;;;;;;;;;4947747;28;20240;-63
2021/12/27 06:56:30;;;;;;;19.47;10.97;;;;;;;;;;4951355;28;20295;-63
2021/12/27 06:58:59;;;;;;;18.57;10.70;;;;;;;;;;4965358;28;20212;-62
2021/12/27 07:01:26;;;;;;;17.63;10.63;;;;;;;;;;4944557;28;20217;-64
2021/12/27 07:03:54;;;;;;;21.70;11.93;;;;;;;;;;4963262;28;20636;-63
2021/12/27 07:06:22;;;;;;;15.97;10.00;;;;;;;;;;4950656;28;20227;-62
2021/12/27 07:08:49;;;;;;;15.53;11.13;;;;;;;;;;4948683;28;20220;-64
2021/12/27 07:11:16;;;;;;;19.17;10.63;;;;;;;;;;4958043;28;20216;-64
2021/12/27 07:13:44;;;;;;;17.13;10.90;;;;;;;;;;4957065;28;20278;-63
2021/12/27 07:16:11;;;;;;;18.93;10.57;;;;;;;;;;4943324;28;20208;-62
2021/12/27 07:18:39;;;;;;;23.70;15.30;;;;;;;;;;4941599;28;20228;-63
2021/12/27 07:21:06;;;;;;;18.27;10.63;;;;;;;;;;4957000;28;20231;-63
2021/12/27 07:23:33;;;;;;;19.20;11.77;;;;;;;;;;4957823;28;20239;-64
2021/12/27 07:26:01;;;;;;;19.33;12.50;;;;;;;;;;4962585;28;20223;-63
2021/12/27 07:28:29;;;;;;;21.93;11.47;;;;;;;;;;4955231;28;20219;-62
2021/12/27 07:30:59;;;;;;;21.67;11.17;;;;;;;;;;4969149;28;20209;-64
2021/12/27 07:33:27;;;;;;;20.10;11.53;;;;;;;;;;4953130;28;20294;-63
2021/12/27 07:35:54;;;;;;;24.10;12.33;;;;;;;;;;4951215;28;20216;-63
2021/12/27 07:38:22;;;;;;;24.93;12.33;;;;;;;;;;4962047;28;20204;-63
2021/12/27 07:40:49;;;;;;;22.20;11.23;;;;;;;;;;4967899;28;20211;-63
2021/12/27 07:43:17;;;;;;;19.40;10.63;;;;;;;;;;4961686;28;20231;-62
2021/12/27 07:45:44;;;;;;;23.13;11.20;;;;;;;;;;4949829;28;20219;-63
2021/12/27 07:48:12;;;;;;;21.93;11.60;;;;;;;;;;4952017;28;20306;-64
2021/12/27 07:50:40;;;;;;;19.60;10.70;;;;;;;;;;4957921;28;20697;-63
2021/12/27 07:53:09;;;;;;;19.97;10.37;;;;;;;;;;4966716;28;20244;-62
2021/12/27 07:55:38;;;;;;;23.23;11.60;;;;;;;;;;4942888;28;20274;-64
2021/12/27 07:58:05;;;;;;;24.53;11.90;;;;;;;;;;4950827;28;20213;-63
2021/12/27 08:00:33;;;;;;;24.77;12.13;;;;;;;;;;4941050;28;20208;-64
2021/12/27 08:03:00;;;;;;;24.83;12.83;;;;;;;;;;4947532;28;20208;-63
2021/12/27 08:05:28;;;;;;;23.57;11.13;;;;;;;;;;4950646;28;20240;-62
2021/12/27 08:07:57;;;;;;;23.63;12.37;;;;;;;;;;4945688;28;20214;-64
2021/12/27 08:10:26;;;;;;;20.10;10.77;;;;;;;;;;4949813;28;20244;-64
2021/12/27 08:12:55;;;;;;;27.50;12.50;;;;;;;;;;4955667;28;20232;-62
2021/12/27 08:15:24;;;;;;;25.07;11.97;;;;;;;;;;4960857;28;20236;-65
2021/12/27 08:17:51;;;;;;;19.57;12.10;;;;;;;;;;4944745;28;20208;-63
2021/12/27 08:20:18;;;;;;;22.97;11.73;;;;;;;;;;4962106;28;20208;-64
2021/12/27 08:22:47;;;;;;;23.77;11.43;;;;;;;;;;4951733;28;20669;-66
2021/12/27 08:25:15;;;;;;;21.87;10.83;;;;;;;;;;4949924;28;21645;-63
2021/12/27 08:27:43;;;;;;;26.23;10.83;;;;;;;;;;4963087;28;20607;-64
2021/12/27 08:30:11;;;;;;;23.17;10.27;;;;;;;;;;4952042;28;20216;-61
2021/12/27 08:32:40;;;;;;;18.17;9.87;;;;;;;;;;4950830;28;20232;-62
2021/12/27 08:35:10;;;;;;;19.50;9.87;;;;;;;;;;4948696;28;20234;-62
2021/12/27 08:37:38;;;;;;;22.33;10.87;;;;;;;;;;4940271;28;20204;-62
2021/12/27 08:40:07;;;;;;;21.73;10.67;;;;;;;;;;4953177;28;20239;-62
2021/12/27 08:42:35;;;;;;;23.33;10.83;;;;;;;;;;4947479;28;20290;-62
2021/12/27 08:45:03;;;;;;;18.07;9.30;;;;;;;;;;4952714;28;20282;-62
2021/12/27 08:47:31;;;;;;;17.93;9.33;;;;;;;;;;4969924;28;22073;-62
2021/12/27 08:50:00;;;;;;;13.60;8.30;;;;;;;;;;4967072;28;20225;-63
2021/12/27 08:52:33;;;;;;;17.47;8.73;;;;;;;;;;4971148;28;20217;-64
2021/12/27 08:55:01;;;;;;;18.70;9.03;;;;;;;;;;4951384;28;20235;-63
2021/12/27 08:57:29;;;;;;;21.00;10.30;;;;;;;;;;4953634;28;20576;-62
2021/12/27 08:59:57;;;;;;;20.50;10.77;;;;;;;;;;4950449;28;20205;-62
2021/12/27 09:02:25;;;;;;;21.57;12.00;;;;;;;;;;4964417;28;20205;-62
2021/12/27 09:04:54;;;;;;;25.70;13.80;;;;;;;;;;4968710;28;20238;-62
2021/12/27 09:07:21;;;;;;;21.63;11.27;;;;;;;;;;4963873;28;20690;-62
2021/12/27 09:09:49;;;;;;;17.87;9.13;;;;;;;;;;4956376;28;20213;-62
2021/12/27 09:12:17;;;;;;;18.20;10.50;;;;;;;;;;4945520;28;20208;-63
2021/12/27 09:14:45;;;;;;;20.20;11.97;;;;;;;;;;4936474;28;20236;-64
2021/12/27 09:17:12;;;;;;;16.50;9.77;;;;;;;;;;4960721;28;20754;-64
2021/12/27 09:19:40;;;;;;;19.07;9.67;;;;;;;;;;4945302;28;20221;-64
2021/12/27 09:22:13;;;;;;;17.77;9.50;;;;;;;;;;4945750;28;20235;-64
2021/12/27 09:24:41;;;;;;;49.73;23.67;;;;;;;;;;4968329;28;20236;-63
2021/12/27 09:27:08;;;;;;;52.57;33.07;;;;;;;;;;4953258;28;20582;-64
2021/12/27 09:29:36;;;;;;;23.83;11.87;;;;;;;;;;4951167;28;20208;-64
2021/12/27 09:32:04;;;;;;;21.30;11.40;;;;;;;;;;4961637;28;20212;-64
2021/12/27 09:34:31;;;;;;;22.00;13.00;;;;;;;;;;4951376;28;20269;-63
2021/12/27 09:36:59;;;;;;;20.37;11.20;;;;;;;;;;4953790;28;20209;-63
2021/12/27 09:39:26;;;;;;;23.10;13.07;;;;;;;;;;4951780;28;20609;-63
2021/12/27 09:41:54;;;;;;;18.27;10.73;;;;;;;;;;4951943;28;20216;-64
2021/12/27 09:44:21;;;;;;;19.00;10.93;;;;;;;;;;4955457;28;20229;-63
2021/12/27 09:46:51;;;;;;;18.00;11.17;;;;;;;;;;4970234;28;20216;-64
2021/12/27 09:49:19;;;;;;;19.30;11.27;;;;;;;;;;4961229;28;20240;-64
2021/12/27 09:51:47;;;;;;;22.97;12.37;;;;;;;;;;4959764;28;20227;-63
2021/12/27 09:54:14;;;;;;;22.80;14.43;;;;;;;;;;4962929;28;20236;-64
2021/12/27 09:56:43;;;;;;;23.37;14.23;;;;;;;;;;4955653;28;20593;-64
2021/12/27 09:59:10;;;;;;;20.87;12.73;;;;;;;;;;4955471;28;20219;-64
2021/12/27 10:01:38;;;;;;;22.47;14.17;;;;;;;;;;4957535;28;20212;-64
2021/12/27 10:04:06;;;;;;;24.13;14.37;;;;;;;;;;4960043;28;20240;-64
2021/12/27 10:06:33;;;;;;;20.90;14.20;;;;;;;;;;4974673;28;20318;-63
2021/12/27 10:09:02;;;;;;;21.80;12.07;;;;;;;;;;4956573;28;20617;-63
2021/12/27 10:11:31;;;;;;;19.20;11.37;;;;;;;;;;4971891;28;20216;-64
2021/12/27 10:14:00;;;;;;;16.93;10.17;;;;;;;;;;4971942;28;20738;-64
2021/12/27 10:16:28;;;;;;;16.87;10.80;;;;;;;;;;4960684;28;20212;-64
2021/12/27 10:18:56;;;;;;;16.43;11.20;;;;;;;;;;4961943;28;20200;-63
2021/12/27 10:21:24;;;;;;;16.50;11.00;;;;;;;;;;4959110;28;20212;-64
2021/12/27 10:24:07;;;;;;;17.90;10.43;;;;;;;;;;4954300;28;20220;-64
2021/12/27 10:26:35;;;;;;;17.30;11.50;;;;;;;;;;4951303;28;20216;-62
2021/12/27 10:29:15;;;;;;;17.20;11.50;;;;;;;;;;4976014;28;20213;-63
2021/12/27 10:31:52;;;;;;;21.47;11.43;;;;;;;;;;4976591;28;20251;-64
2021/12/27 10:34:20;;;;;;;16.20;10.37;;;;;;;;;;4967889;28;20229;-63
2021/12/27 10:37:05;;;;;;;14.47;9.93;;;;;;;;;;4953984;28;20201;-63
2021/12/27 10:40:05;;;;;;;13.20;8.83;;;;;;;;;;4953032;28;20219;-65
2021/12/27 10:42:35;;;;;;;16.53;10.27;;;;;;;;;;4931316;28;20243;-64
2021/12/27 10:45:16;;;;;;;21.27;11.13;;;;;;;;;;4961441;28;20690;-64
2021/12/27 10:47:46;;;;;;;16.07;10.83;;;;;;;;;;4952961;28;20691;-63
2021/12/27 10:50:23;;;;;;;16.07;11.07;;;;;;;;;;4949677;28;20204;-63
2021/12/27 10:52:57;;;;;;;22.20;14.17;;;;;;;;;;4964209;28;20210;-63
2021/12/27 10:55:54;;;;;;;16.80;10.80;;;;;;;;;;4984923;28;20264;-63
2021/12/27 10:58:23;;;;;;;13.10;9.67;;;;;;;;;;4970655;28;20233;-64
2021/12/27 11:00:51;;;;;;;17.60;11.07;;;;;;;;;;4972389;28;20205;-63
2021/12/27 11:03:22;;;;;;;14.73;9.37;;;;;;;;;;4955389;28;20303;-64
2021/12/27 11:05:51;;;;;;;11.77;9.13;;;;;;;;;;4950960;28;20324;-63
2021/12/27 11:08:18;;;;;;;11.80;8.33;;;;;;;;;;4960485;28;20608;-65
2021/12/27 11:10:46;;;;;;;12.57;8.37;;;;;;;;;;4950395;28;20707;-62
2021/12/27 11:13:14;;;;;;;11.10;8.13;;;;;;;;;;4953543;28;20702;-64
2021/12/27 11:15:42;;;;;;;10.07;7.13;;;;;;;;;;4956083;28;20742;-63
2021/12/27 11:18:12;;;;;;;9.50;7.50;;;;;;;;;;4948987;28;20558;-64
2021/12/27 11:20:43;;;;;;;11.40;7.27;;;;;;;;;;4959001;28;20200;-64
2021/12/27 11:23:11;;;;;;;8.80;7.17;;;;;;;;;;4964350;28;20721;-64
2021/12/27 11:25:39;;;;;;;11.13;9.10;;;;;;;;;;4968236;28;20212;-63
2021/12/27 11:28:25;;;;;;;10.17;8.10;;;;;;;;;;4955856;28;20666;-63
2021/12/27 11:30:52;;;;;;;9.93;7.60;;;;;;;;;;4955957;28;20212;-64
2021/12/27 11:33:22;;;;;;;9.20;7.37;;;;;;;;;;4958611;28;20902;-65
2021/12/27 11:35:52;;;;;;;9.33;7.83;;;;;;;;;;4963189;28;20209;-64
2021/12/27 11:38:32;;;;;;;9.57;7.50;;;;;;;;;;4954712;28;20703;-64
2021/12/27 11:41:01;;;;;;;10.60;7.53;;;;;;;;;;4955434;28;21442;-64
2021/12/27 11:43:47;;;;;;;9.80;7.83;;;;;;;;;;4952983;28;20264;-63
2021/12/27 11:46:15;;;;;;;8.70;7.40;;;;;;;;;;4967644;28;22124;-64
2021/12/27 11:48:47;;;;;;;9.10;7.20;;;;;;;;;;4956567;28;20709;-64
2021/12/27 11:51:15;;;;;;;8.90;7.57;;;;;;;;;;4977440;28;20208;-64
2021/12/27 11:53:47;;;;;;;9.13;7.17;;;;;;;;;;4978575;28;20250;-62
2021/12/27 11:56:19;;;;;;;41.87;25.83;;;;;;;;;;4964278;28;21824;-64
2021/12/27 11:58:50;;;;;;;23.53;16.73;;;;;;;;;;4961707;28;20212;-64
2021/12/27 12:01:20;;;;;;;9.57;7.27;;;;;;;;;;4969420;28;20208;-64
2021/12/27 12:03:50;;;;;;;24.50;17.40;;;;;;;;;;4958932;28;20635;-64
2021/12/27 12:06:46;;;;;;;36.40;24.50;;;;;;;;;;4969193;28;20208;-64
2021/12/27 12:09:18;;;;;;;32.57;23.17;;;;;;;;;;4951363;28;20211;-64
2021/12/27 12:11:46;;;;;;;9.03;7.33;;;;;;;;;;4960877;28;20737;-65
2021/12/27 12:14:24;;;;;;;47.87;30.77;;;;;;;;;;4964980;28;20247;-63
2021/12/27 12:16:52;;;;;;;10.73;8.63;;;;;;;;;;4959243;28;20212;-64
2021/12/27 12:19:34;;;;;;;13.30;9.37;;;;;;;;;;4961606;28;20740;-63
2021/12/27 12:22:02;;;;;;;10.73;8.50;;;;;;;;;;4969499;28;20204;-64
2021/12/27 12:24:30;;;;;;;8.37;6.97;;;;;;;;;;4965346;28;20232;-63
2021/12/27 12:27:01;;;;;;;5.73;5.13;;;;;;;;;;4965182;28;20647;-63
2021/12/27 12:29:38;;;;;;;7.23;6.13;;;;;;;;;;4959712;28;20213;-64
2021/12/27 12:32:16;;;;;;;16.17;13.93;;;;;;;;;;4962581;28;20227;-63
2021/12/27 12:34:44;;;;;;;19.80;15.30;;;;;;;;;;4978128;28;20236;-63
2021/12/27 12:37:16;;;;;;;27.80;19.57;;;;;;;;;;4978976;28;20205;-62
2021/12/27 12:39:46;;;;;;;13.67;10.33;;;;;;;;;;4974652;28;20212;-65
2021/12/27 12:42:19;;;;;;;11.63;9.30;;;;;;;;;;4969804;28;20208;-63
2021/12/27 12:44:47;;;;;;;8.37;6.70;;;;;;;;;;4957304;28;20228;-63
2021/12/27 12:47:17;;;;;;;22.50;16.77;;;;;;;;;;4973665;28;20235;-63
2021/12/27 12:49:45;;;;;;;16.87;12.57;;;;;;;;;;4966150;28;20220;-64
2021/12/27 12:52:12;;;;;;;6.20;5.40;;;;;;;;;;4969076;28;20208;-63
2021/12/27 12:54:43;;;;;;;7.10;6.27;;;;;;;;;;4984478;28;20250;-63
2021/12/27 12:57:13;;;;;;;5.90;5.30;;;;;;;;;;4963253;28;20607;-62
2021/12/27 12:59:44;;;;;;;5.63;5.13;;;;;;;;;;4980220;28;20606;-63
2021/12/27 13:02:14;;;;;;;5.80;5.13;;;;;;;;;;4956739;28;20201;-63
2021/12/27 13:04:50;;;;;;;6.33;5.57;;;;;;;;;;4963427;28;20323;-63
2021/12/27 13:07:44;;;;;;;5.97;5.37;;;;;;;;;;4968427;28;20217;-64
2021/12/27 13:10:23;;;;;;;6.60;5.87;;;;;;;;;;4949386;28;20284;-62
2021/12/27 13:12:52;;;;;;;6.97;6.27;;;;;;;;;;4953961;28;20213;-62
2021/12/27 13:15:30;;;;;;;9.17;6.37;;;;;;;;;;4956914;28;20304;-63
2021/12/27 13:18:07;;;;;;;6.77;5.63;;;;;;;;;;4954298;28;20208;-64
2021/12/27 13:20:49;;;;;;;8.90;7.70;;;;;;;;;;4952548;28;20211;-63
2021/12/27 13:23:17;;;;;;;10.60;8.53;;;;;;;;;;4955866;28;20228;-62
2021/12/27 13:25:54;;;;;;;9.20;7.73;;;;;;;;;;4952351;28;20211;-62
2021/12/27 13:28:22;;;;;;;9.63;8.00;;;;;;;;;;4964585;28;20421;-64
2021/12/27 13:30:50;;;;;;;10.37;8.67;;;;;;;;;;4952021;28;20314;-64
2021/12/27 13:33:18;;;;;;;10.10;7.80;;;;;;;;;;4957449;28;20306;-63
2021/12/27 13:35:47;;;;;;;12.63;9.50;;;;;;;;;;4955988;28;20260;-63
2021/12/27 13:38:29;;;;;;;7.37;6.40;;;;;;;;;;4950243;28;20826;-63
2021/12/27 13:40:58;;;;;;;6.20;5.60;;;;;;;;;;4951715;28;20205;-63
2021/12/27 13:43:27;;;;;;;6.90;6.20;;;;;;;;;;4965779;28;20232;-64
2021/12/27 13:45:54;;;;;;;8.97;7.63;;;;;;;;;;4950924;28;20698;-63
2021/12/27 13:48:32;;;;;;;7.93;7.13;;;;;;;;;;4954216;28;20267;-63
2021/12/27 13:51:00;;;;;;;11.97;9.37;;;;;;;;;;4951403;28;20411;-64
2021/12/27 13:53:28;;;;;;;12.00;8.90;;;;;;;;;;4950828;28;20737;-63
2021/12/27 13:56:06;;;;;;;8.37;6.97;;;;;;;;;;4951007;28;23351;-63
2021/12/27 13:58:37;;;;;;;13.07;9.70;;;;;;;;;;4954749;28;20215;-62
2021/12/27 14:01:09;;;;;;;13.87;10.50;;;;;;;;;;4946954;28;20625;-64
2021/12/27 14:03:37;;;;;;;9.67;8.47;;;;;;;;;;4956218;28;20229;-64
2021/12/27 14:06:05;;;;;;;9.83;8.53;;;;;;;;;;4954159;28;20208;-62
2021/12/27 14:08:33;;;;;;;11.13;7.57;;;;;;;;;;4952525;28;20315;-63
2021/12/27 14:11:01;;;;;;;12.50;10.17;;;;;;;;;;4955837;28;20205;-63
2021/12/27 14:13:45;;;;;;;13.33;10.17;;;;;;;;;;4959401;28;20232;-62
2021/12/27 14:16:27;;;;;;;7.60;6.80;;;;;;;;;;4963195;28;23115;-64
2021/12/27 14:19:05;;;;;;;7.87;6.93;;;;;;;;;;4954183;28;20647;-64
2021/12/27 14:21:34;;;;;;;8.80;7.63;;;;;;;;;;4951462;28;20331;-63
2021/12/27 14:24:06;;;;;;;10.60;8.10;;;;;;;;;;4966048;28;20782;-63
2021/12/27 14:26:35;;;;;;;13.43;9.07;;;;;;;;;;4967717;28;20215;-63
2021/12/27 14:29:19;;;;;;;11.00;9.57;;;;;;;;;;4962022;28;20212;-63
2021/12/27 14:31:51;;;;;;;12.90;11.03;;;;;;;;;;4948344;28;20322;-62
2021/12/27 14:34:34;;;;;;;11.77;9.67;;;;;;;;;;4950103;28;20254;-63
2021/12/27 14:37:02;;;;;;;11.70;9.13;;;;;;;;;;4948311;28;20610;-61
2021/12/27 14:39:32;;;;;;;11.40;9.60;;;;;;;;;;4951088;28;20332;-64
2021/12/27 14:42:01;;;;;;;14.07;11.30;;;;;;;;;;4950065;28;20302;-62